sensor_id;sensor_type;location;lat;lon;timestamp;pressure;altitude;pressure_sealevel;temperature;humidity
36828;BME280;22766;48.042;11.192;2023-05-08T00:01:42;95276.53;;;13.54;100.00
36828;BME280;22766;48.042;11.192;2023-05-08T00:04:08;95268.59;;;13.55;100.00
36828;BME280;22766;48.042;11.192;2023-05-08T00:06:35;95272.00;;;13.56;100.00
36828;BME280;22766;48.042;11.192;2023-05-08T00:09:02;95272.31;;;13.53;100.00
36828;BME280;22766;48.042;11.192;2023-05-08T00:11:29;95269.06;;;13.51;100.00
36828;BME280;22766;48.042;11.192;2023-05-08T00:13:55;95271.69;;;13.43;100.00
36828;BME280;22766;48.042;11.192;2023-05-08T00:16:22;95275.22;;;13.42;100.00
36828;BME280;22766;48.042;11.192;2023-05-08T00:18:49;95276.38;;;13.47;100.00
36828;BME280;22766;48.042;11.192;2023-05-08T00:21:16;95280.25;;;13.43;100.00
36828;BME280;22766;48.042;11.192;2023-05-08T00:23:42;95278.16;;;13.39;100.00
36828;BME280;22766;48.042;11.192;2023-05-08T00:26:09;95273.63;;;13.41;100.00
36828;BME280;22766;48.042;11.192;2023-05-08T00:28:36;95281.06;;;13.44;100.00
36828;BME280;22766;48.042;11.192;2023-05-08T00:31:02;95275.72;;;13.45;100.00
36828;BME280;22766;48.042;11.192;2023-05-08T00:33:29;95280.09;;;13.37;100.00
36828;BME280;22766;48.042;11.192;2023-05-08T00:36:00;95272.31;;;13.37;100.00
36828;BME280;22766;48.042;11.192;2023-05-08T00:38:29;95276.53;;;13.38;100.00
36828;BME280;22766;48.042;11.192;2023-05-08T00:40:57;95279.13;;;13.38;100.00
36828;BME280;22766;48.042;11.192;2023-05-08T00:43:24;95278.81;;;13.41;100.00
36828;BME280;22766;48.042;11.192;2023-05-08T00:46:00;95280.09;;;13.37;100.00
36828;BME280;22766;48.042;11.192;2023-05-08T00:48:29;95283.66;;;13.36;100.00
36828;BME280;22766;48.042;11.192;2023-05-08T00:50:57;95276.88;;;13.35;100.00
36828;BME280;22766;48.042;11.192;2023-05-08T00:53:25;95272.97;;;13.39;100.00
36828;BME280;22766;48.042;11.192;2023-05-08T00:55:52;95274.41;;;13.41;100.00
36828;BME280;22766;48.042;11.192;2023-05-08T00:58:21;95268.91;;;13.36;100.00
36828;BME280;22766;48.042;11.192;2023-05-08T01:00:49;95271.03;;;13.33;100.00
36828;BME280;22766;48.042;11.192;2023-05-08T01:03:20;95273.63;;;13.33;100.00
36828;BME280;22766;48.042;11.192;2023-05-08T01:05:48;95266.47;;;13.27;100.00
36828;BME280;22766;48.042;11.192;2023-05-08T01:08:15;95273.44;;;13.26;100.00
36828;BME280;22766;48.042;11.192;2023-05-08T01:11:00;95281.06;;;13.20;100.00
36828;BME280;22766;48.042;11.192;2023-05-08T01:13:56;95280.25;;;13.19;100.00
36828;BME280;22766;48.042;11.192;2023-05-08T01:16:39;95282.03;;;13.19;100.00
36828;BME280;22766;48.042;11.192;2023-05-08T01:31:07;95283.66;;;13.11;100.00
36828;BME280;22766;48.042;11.192;2023-05-08T01:33:48;95290.28;;;13.06;100.00
36828;BME280;22766;48.042;11.192;2023-05-08T01:41:39;95287.88;;;13.13;100.00
36828;BME280;22766;48.042;11.192;2023-05-08T01:44:14;95289.66;;;13.12;100.00
36828;BME280;22766;48.042;11.192;2023-05-08T01:46:48;95289.00;;;13.10;100.00
36828;BME280;22766;48.042;11.192;2023-05-08T01:52:17;95282.19;;;13.09;100.00
36828;BME280;22766;48.042;11.192;2023-05-08T01:54:58;95291.75;;;13.17;100.00
36828;BME280;22766;48.042;11.192;2023-05-08T01:57:28;95291.59;;;13.10;100.00
36828;BME280;22766;48.042;11.192;2023-05-08T01:59:59;95300.66;;;13.06;100.00
36828;BME280;22766;48.042;11.192;2023-05-08T02:02:27;95294.00;;;13.03;100.00
36828;BME280;22766;48.042;11.192;2023-05-08T02:04:56;95294.34;;;13.08;100.00
36828;BME280;22766;48.042;11.192;2023-05-08T02:07:24;95299.00;;;13.05;100.00
36828;BME280;22766;48.042;11.192;2023-05-08T02:09:52;95297.53;;;13.02;100.00
36828;BME280;22766;48.042;11.192;2023-05-08T02:12:21;95297.84;;;12.99;100.00
36828;BME280;22766;48.042;11.192;2023-05-08T02:14:48;95298.22;;;13.04;100.00
36828;BME280;22766;48.042;11.192;2023-05-08T02:17:19;95301.25;;;13.00;100.00
36828;BME280;22766;48.042;11.192;2023-05-08T02:19:46;95290.06;;;12.99;100.00
36828;BME280;22766;48.042;11.192;2023-05-08T02:22:15;95293.69;;;13.06;100.00
36828;BME280;22766;48.042;11.192;2023-05-08T02:24:44;95296.44;;;13.05;100.00
36828;BME280;22766;48.042;11.192;2023-05-08T02:27:12;95295.97;;;13.09;100.00
36828;BME280;22766;48.042;11.192;2023-05-08T02:29:41;95303.91;;;13.08;100.00
36828;BME280;22766;48.042;11.192;2023-05-08T02:32:08;95298.06;;;13.06;100.00
36828;BME280;22766;48.042;11.192;2023-05-08T02:34:36;95305.38;;;13.10;100.00
36828;BME280;22766;48.042;11.192;2023-05-08T02:37:11;95300.34;;;13.17;100.00
36828;BME280;22766;48.042;11.192;2023-05-08T02:39:40;95306.34;;;13.18;100.00
36828;BME280;22766;48.042;11.192;2023-05-08T02:42:08;95299.22;;;13.20;100.00
36828;BME280;22766;48.042;11.192;2023-05-08T02:44:34;95308.28;;;13.16;100.00
36828;BME280;22766;48.042;11.192;2023-05-08T02:49:49;95308.44;;;13.06;100.00
36828;BME280;22766;48.042;11.192;2023-05-08T02:52:26;95309.25;;;13.06;100.00
36828;BME280;22766;48.042;11.192;2023-05-08T02:55:02;95298.22;;;13.04;100.00
36828;BME280;22766;48.042;11.192;2023-05-08T02:58:13;95298.56;;;13.09;100.00
36828;BME280;22766;48.042;11.192;2023-05-08T03:00:46;95303.28;;;13.14;100.00
36828;BME280;22766;48.042;11.192;2023-05-08T03:03:41;95300.50;;;13.07;100.00
36828;BME280;22766;48.042;11.192;2023-05-08T03:06:12;95305.03;;;13.05;100.00
36828;BME280;22766;48.042;11.192;2023-05-08T03:08:41;95308.59;;;13.04;100.00
36828;BME280;22766;48.042;11.192;2023-05-08T03:11:12;95304.19;;;13.05;100.00
36828;BME280;22766;48.042;11.192;2023-05-08T03:13:41;95300.81;;;13.04;100.00
36828;BME280;22766;48.042;11.192;2023-05-08T03:16:12;95310.66;;;13.01;100.00
36828;BME280;22766;48.042;11.192;2023-05-08T03:18:46;95305.19;;;13.04;100.00
36828;BME280;22766;48.042;11.192;2023-05-08T03:21:17;95297.25;;;13.05;100.00
36828;BME280;22766;48.042;11.192;2023-05-08T03:23:47;95295.13;;;13.09;100.00
36828;BME280;22766;48.042;11.192;2023-05-08T03:26:18;95303.09;;;13.07;100.00
36828;BME280;22766;48.042;11.192;2023-05-08T03:28:49;95295.66;;;13.13;100.00
36828;BME280;22766;48.042;11.192;2023-05-08T03:31:19;95297.25;;;13.13;100.00
36828;BME280;22766;48.042;11.192;2023-05-08T03:33:49;95292.09;;;13.22;100.00
36828;BME280;22766;48.042;11.192;2023-05-08T03:36:16;95293.69;;;13.23;100.00
36828;BME280;22766;48.042;11.192;2023-05-08T03:38:44;95296.00;;;13.26;100.00
36828;BME280;22766;48.042;11.192;2023-05-08T03:41:11;95302.78;;;13.10;100.00
36828;BME280;22766;48.042;11.192;2023-05-08T03:43:38;95301.47;;;13.06;100.00
36828;BME280;22766;48.042;11.192;2023-05-08T03:46:08;95301.81;;;13.20;100.00
36828;BME280;22766;48.042;11.192;2023-05-08T03:48:36;95307.97;;;13.27;100.00
36828;BME280;22766;48.042;11.192;2023-05-08T03:51:04;95311.69;;;13.08;100.00
36828;BME280;22766;48.042;11.192;2023-05-08T03:53:33;95312.50;;;13.08;100.00
36828;BME280;22766;48.042;11.192;2023-05-08T03:56:01;95315.88;;;13.09;100.00
36828;BME280;22766;48.042;11.192;2023-05-08T04:01:07;95311.47;;;13.01;100.00
36828;BME280;22766;48.042;11.192;2023-05-08T04:03:54;95315.00;;;12.92;100.00
36828;BME280;22766;48.042;11.192;2023-05-08T04:06:29;95314.97;;;12.84;100.00
36828;BME280;22766;48.042;11.192;2023-05-08T04:09:19;95320.66;;;12.88;100.00
36828;BME280;22766;48.042;11.192;2023-05-08T04:12:12;95326.50;;;12.90;100.00
36828;BME280;22766;48.042;11.192;2023-05-08T04:14:43;95325.25;;;13.02;100.00
36828;BME280;22766;48.042;11.192;2023-05-08T04:17:13;95327.69;;;13.03;100.00
36828;BME280;22766;48.042;11.192;2023-05-08T04:19:45;95326.41;;;13.07;100.00
36828;BME280;22766;48.042;11.192;2023-05-08T04:22:13;95331.94;;;13.04;100.00
36828;BME280;22766;48.042;11.192;2023-05-08T04:24:47;95339.38;;;13.07;100.00
36828;BME280;22766;48.042;11.192;2023-05-08T04:27:15;95333.38;;;13.07;100.00
36828;BME280;22766;48.042;11.192;2023-05-08T04:29:42;95338.09;;;13.11;100.00
36828;BME280;22766;48.042;11.192;2023-05-08T04:32:10;95340.22;;;13.16;100.00
36828;BME280;22766;48.042;11.192;2023-05-08T04:34:37;95333.56;;;13.22;100.00
36828;BME280;22766;48.042;11.192;2023-05-08T04:37:05;95333.09;;;13.26;100.00
36828;BME280;22766;48.042;11.192;2023-05-08T04:39:33;95329.38;;;13.29;100.00
36828;BME280;22766;48.042;11.192;2023-05-08T04:42:00;95351.09;;;13.28;100.00
36828;BME280;22766;48.042;11.192;2023-05-08T04:44:31;95346.53;;;13.22;100.00
36828;BME280;22766;48.042;11.192;2023-05-08T04:46:58;95347.19;;;13.24;100.00
36828;BME280;22766;48.042;11.192;2023-05-08T04:49:25;95351.22;;;13.26;100.00
36828;BME280;22766;48.042;11.192;2023-05-08T04:51:51;95350.56;;;13.24;100.00
36828;BME280;22766;48.042;11.192;2023-05-08T04:54:18;95344.28;;;13.35;100.00
36828;BME280;22766;48.042;11.192;2023-05-08T04:56:45;95351.59;;;13.31;100.00
36828;BME280;22766;48.042;11.192;2023-05-08T04:59:12;95353.03;;;13.34;100.00
36828;BME280;22766;48.042;11.192;2023-05-08T05:01:41;95355.47;;;13.35;100.00
36828;BME280;22766;48.042;11.192;2023-05-08T05:04:08;95353.34;;;13.31;100.00
36828;BME280;22766;48.042;11.192;2023-05-08T05:06:35;95352.03;;;13.19;100.00
36828;BME280;22766;48.042;11.192;2023-05-08T05:09:02;95358.50;;;13.14;100.00
36828;BME280;22766;48.042;11.192;2023-05-08T05:11:30;95358.00;;;13.11;100.00
36828;BME280;22766;48.042;11.192;2023-05-08T05:13:56;95359.16;;;13.17;100.00
36828;BME280;22766;48.042;11.192;2023-05-08T05:16:23;95363.88;;;13.21;100.00
36828;BME280;22766;48.042;11.192;2023-05-08T05:18:50;95369.53;;;13.25;100.00
36828;BME280;22766;48.042;11.192;2023-05-08T05:21:18;95365.34;;;13.24;100.00
36828;BME280;22766;48.042;11.192;2023-05-08T05:23:45;95363.69;;;13.14;100.00
36828;BME280;22766;48.042;11.192;2023-05-08T05:26:11;95375.22;;;13.28;100.00
36828;BME280;22766;48.042;11.192;2023-05-08T05:28:38;95372.31;;;13.39;100.00
36828;BME280;22766;48.042;11.192;2023-05-08T05:31:05;95367.97;;;13.48;100.00
36828;BME280;22766;48.042;11.192;2023-05-08T05:33:32;95378.69;;;13.45;100.00
36828;BME280;22766;48.042;11.192;2023-05-08T05:35:59;95375.56;;;13.33;100.00
36828;BME280;22766;48.042;11.192;2023-05-08T05:38:26;95378.97;;;13.26;100.00
36828;BME280;22766;48.042;11.192;2023-05-08T05:40:53;95377.66;;;13.22;100.00
36828;BME280;22766;48.042;11.192;2023-05-08T05:43:20;95380.88;;;13.16;100.00
36828;BME280;22766;48.042;11.192;2023-05-08T05:45:47;95382.22;;;13.28;100.00
36828;BME280;22766;48.042;11.192;2023-05-08T05:48:13;95385.94;;;13.33;100.00
36828;BME280;22766;48.042;11.192;2023-05-08T05:50:41;95385.28;;;13.31;100.00
36828;BME280;22766;48.042;11.192;2023-05-08T05:53:07;95386.44;;;13.37;100.00
36828;BME280;22766;48.042;11.192;2023-05-08T05:55:35;95392.44;;;13.37;100.00
36828;BME280;22766;48.042;11.192;2023-05-08T05:58:02;95395.03;;;13.45;100.00
36828;BME280;22766;48.042;11.192;2023-05-08T06:00:29;95394.69;;;13.32;100.00
36828;BME280;22766;48.042;11.192;2023-05-08T06:02:57;95388.88;;;13.38;100.00
36828;BME280;22766;48.042;11.192;2023-05-08T06:05:24;95395.50;;;13.49;100.00
36828;BME280;22766;48.042;11.192;2023-05-08T06:07:51;95401.22;;;13.52;100.00
36828;BME280;22766;48.042;11.192;2023-05-08T06:10:18;95404.59;;;13.53;100.00
36828;BME280;22766;48.042;11.192;2023-05-08T06:12:45;95402.50;;;13.48;100.00
36828;BME280;22766;48.042;11.192;2023-05-08T06:15:12;95405.41;;;13.53;100.00
36828;BME280;22766;48.042;11.192;2023-05-08T06:17:42;95405.59;;;13.52;100.00
36828;BME280;22766;48.042;11.192;2023-05-08T06:20:09;95400.72;;;13.41;100.00
36828;BME280;22766;48.042;11.192;2023-05-08T06:22:37;95407.84;;;13.39;100.00
36828;BME280;22766;48.042;11.192;2023-05-08T06:25:06;95397.63;;;13.37;100.00
36828;BME280;22766;48.042;11.192;2023-05-08T06:27:33;95401.66;;;13.40;100.00
36828;BME280;22766;48.042;11.192;2023-05-08T06:30:00;95410.78;;;13.52;100.00
36828;BME280;22766;48.042;11.192;2023-05-08T06:32:27;95409.13;;;13.35;100.00
36828;BME280;22766;48.042;11.192;2023-05-08T06:34:54;95406.19;;;13.30;100.00
36828;BME280;22766;48.042;11.192;2023-05-08T06:37:20;95406.56;;;13.43;100.00
36828;BME280;22766;48.042;11.192;2023-05-08T06:39:47;95407.34;;;13.51;100.00
36828;BME280;22766;48.042;11.192;2023-05-08T06:42:20;95410.13;;;13.58;100.00
36828;BME280;22766;48.042;11.192;2023-05-08T06:44:46;95413.19;;;13.53;100.00
36828;BME280;22766;48.042;11.192;2023-05-08T06:47:13;95414.97;;;13.53;100.00
36828;BME280;22766;48.042;11.192;2023-05-08T06:49:40;95406.88;;;13.56;100.00
36828;BME280;22766;48.042;11.192;2023-05-08T06:52:06;95411.75;;;13.59;100.00
36828;BME280;22766;48.042;11.192;2023-05-08T06:54:33;95415.97;;;13.68;100.00
36828;BME280;22766;48.042;11.192;2023-05-08T06:57:00;95418.72;;;13.66;100.00
36828;BME280;22766;48.042;11.192;2023-05-08T06:59:26;95413.19;;;13.53;100.00
36828;BME280;22766;48.042;11.192;2023-05-08T07:01:53;95416.13;;;13.58;100.00
36828;BME280;22766;48.042;11.192;2023-05-08T07:04:19;95415.47;;;13.56;100.00
36828;BME280;22766;48.042;11.192;2023-05-08T07:06:47;95419.16;;;13.38;100.00
36828;BME280;22766;48.042;11.192;2023-05-08T07:09:13;95417.84;;;13.34;100.00
36828;BME280;22766;48.042;11.192;2023-05-08T07:11:41;95418.47;;;13.20;100.00
36828;BME280;22766;48.042;11.192;2023-05-08T07:14:08;95418.97;;;13.23;100.00
36828;BME280;22766;48.042;11.192;2023-05-08T07:16:34;95417.53;;;13.29;100.00
36828;BME280;22766;48.042;11.192;2023-05-08T07:19:02;95420.44;;;13.34;100.00
36828;BME280;22766;48.042;11.192;2023-05-08T07:21:28;95413.81;;;13.39;100.00
36828;BME280;22766;48.042;11.192;2023-05-08T07:23:56;95420.47;;;13.42;100.00
36828;BME280;22766;48.042;11.192;2023-05-08T07:26:22;95423.06;;;13.42;100.00
36828;BME280;22766;48.042;11.192;2023-05-08T07:28:49;95421.13;;;13.44;100.00
36828;BME280;22766;48.042;11.192;2023-05-08T07:31:16;95417.88;;;13.42;100.00
36828;BME280;22766;48.042;11.192;2023-05-08T07:33:42;95416.13;;;13.50;100.00
36828;BME280;22766;48.042;11.192;2023-05-08T07:36:10;95418.22;;;13.55;100.00
36828;BME280;22766;48.042;11.192;2023-05-08T07:38:36;95418.25;;;13.63;100.00
36828;BME280;22766;48.042;11.192;2023-05-08T07:41:03;95418.06;;;13.56;100.00
36828;BME280;22766;48.042;11.192;2023-05-08T07:43:31;95425.22;;;13.54;100.00
36828;BME280;22766;48.042;11.192;2023-05-08T07:45:57;95423.03;;;13.26;100.00
36828;BME280;22766;48.042;11.192;2023-05-08T07:48:24;95420.97;;;13.37;100.00
36828;BME280;22766;48.042;11.192;2023-05-08T07:50:51;95427.78;;;13.46;100.00
36828;BME280;22766;48.042;11.192;2023-05-08T07:53:18;95425.34;;;13.53;100.00
36828;BME280;22766;48.042;11.192;2023-05-08T07:55:44;95427.00;;;13.54;100.00
36828;BME280;22766;48.042;11.192;2023-05-08T07:58:11;95427.81;;;13.54;100.00
36828;BME280;22766;48.042;11.192;2023-05-08T08:00:37;95428.13;;;13.59;100.00
36828;BME280;22766;48.042;11.192;2023-05-08T08:03:05;95430.56;;;13.45;100.00
36828;BME280;22766;48.042;11.192;2023-05-08T08:05:32;95431.13;;;13.23;100.00
36828;BME280;22766;48.042;11.192;2023-05-08T08:07:59;95428.59;;;13.39;100.00
36828;BME280;22766;48.042;11.192;2023-05-08T08:10:25;95429.22;;;13.49;100.00
36828;BME280;22766;48.042;11.192;2023-05-08T08:12:52;95429.56;;;13.46;100.00
36828;BME280;22766;48.042;11.192;2023-05-08T08:15:19;95430.06;;;13.49;100.00
36828;BME280;22766;48.042;11.192;2023-05-08T08:17:46;95434.44;;;13.57;100.00
36828;BME280;22766;48.042;11.192;2023-05-08T08:20:12;95429.44;;;13.63;100.00
36828;BME280;22766;48.042;11.192;2023-05-08T08:22:39;95434.28;;;13.66;100.00
36828;BME280;22766;48.042;11.192;2023-05-08T08:25:06;95434.94;;;13.52;100.00
36828;BME280;22766;48.042;11.192;2023-05-08T08:27:33;95437.38;;;13.54;100.00
36828;BME280;22766;48.042;11.192;2023-05-08T08:30:00;95436.22;;;13.56;100.00
36828;BME280;22766;48.042;11.192;2023-05-08T08:32:43;95437.81;;;13.33;100.00
36828;BME280;22766;48.042;11.192;2023-05-08T08:35:10;95441.72;;;13.45;100.00
36828;BME280;22766;48.042;11.192;2023-05-08T08:37:37;95429.94;;;13.67;100.00
36828;BME280;22766;48.042;11.192;2023-05-08T08:40:04;95434.16;;;13.76;100.00
36828;BME280;22766;48.042;11.192;2023-05-08T08:42:31;95440.97;;;13.77;100.00
36828;BME280;22766;48.042;11.192;2023-05-08T08:44:59;95436.75;;;13.84;100.00
36828;BME280;22766;48.042;11.192;2023-05-08T08:47:27;95437.09;;;13.81;100.00
36828;BME280;22766;48.042;11.192;2023-05-08T08:49:57;95426.22;;;13.93;100.00
36828;BME280;22766;48.042;11.192;2023-05-08T08:55:06;95440.50;;;13.89;100.00
36828;BME280;22766;48.042;11.192;2023-05-08T08:57:35;95440.47;;;13.73;100.00
36828;BME280;22766;48.042;11.192;2023-05-08T09:00:03;95433.97;;;13.61;100.00
36828;BME280;22766;48.042;11.192;2023-05-08T09:02:34;95439.31;;;13.68;100.00
36828;BME280;22766;48.042;11.192;2023-05-08T09:05:02;95442.41;;;13.79;100.00
36828;BME280;22766;48.042;11.192;2023-05-08T09:07:29;95441.63;;;13.87;100.00
36828;BME280;22766;48.042;11.192;2023-05-08T09:09:55;95439.03;;;13.79;100.00
36828;BME280;22766;48.042;11.192;2023-05-08T09:12:22;95437.53;;;13.60;100.00
36828;BME280;22766;48.042;11.192;2023-05-08T09:14:49;95445.97;;;13.54;100.00
36828;BME280;22766;48.042;11.192;2023-05-08T09:17:16;95443.22;;;13.64;100.00
36828;BME280;22766;48.042;11.192;2023-05-08T09:19:43;95446.31;;;13.83;100.00
36828;BME280;22766;48.042;11.192;2023-05-08T09:22:10;95436.28;;;14.04;100.00
36828;BME280;22766;48.042;11.192;2023-05-08T09:24:54;95440.50;;;14.05;100.00
36828;BME280;22766;48.042;11.192;2023-05-08T09:27:26;95448.63;;;14.19;100.00
36828;BME280;22766;48.042;11.192;2023-05-08T09:30:04;95446.31;;;14.16;100.00
36828;BME280;22766;48.042;11.192;2023-05-08T09:32:33;95447.00;;;14.34;100.00
36828;BME280;22766;48.042;11.192;2023-05-08T09:35:00;95443.41;;;14.43;100.00
36828;BME280;22766;48.042;11.192;2023-05-08T09:37:27;95442.91;;;14.63;100.00
36828;BME280;22766;48.042;11.192;2023-05-08T09:40:11;95446.13;;;14.81;100.00
36828;BME280;22766;48.042;11.192;2023-05-08T09:42:38;95443.06;;;14.62;100.00
36828;BME280;22766;48.042;11.192;2023-05-08T09:45:06;95439.25;;;14.88;100.00
36828;BME280;22766;48.042;11.192;2023-05-08T09:47:33;95439.63;;;14.77;100.00
36828;BME280;22766;48.042;11.192;2023-05-08T09:50:09;95446.78;;;14.75;100.00
36828;BME280;22766;48.042;11.192;2023-05-08T09:52:38;95449.38;;;14.67;100.00
36828;BME280;22766;48.042;11.192;2023-05-08T09:55:11;95446.19;;;14.41;100.00
36828;BME280;22766;48.042;11.192;2023-05-08T09:57:51;95450.25;;;14.36;100.00
36828;BME280;22766;48.042;11.192;2023-05-08T10:00:19;95455.75;;;14.41;100.00
36828;BME280;22766;48.042;11.192;2023-05-08T10:03:00;95452.69;;;14.29;100.00
36828;BME280;22766;48.042;11.192;2023-05-08T10:05:28;95451.38;;;14.33;100.00
36828;BME280;22766;48.042;11.192;2023-05-08T10:07:58;95447.63;;;14.44;100.00
36828;BME280;22766;48.042;11.192;2023-05-08T10:10:26;95452.19;;;14.42;100.00
36828;BME280;22766;48.042;11.192;2023-05-08T10:12:54;95459.47;;;14.62;100.00
36828;BME280;22766;48.042;11.192;2023-05-08T10:15:28;95459.13;;;14.73;100.00
36828;BME280;22766;48.042;11.192;2023-05-08T10:18:05;95460.91;;;14.81;100.00
36828;BME280;22766;48.042;11.192;2023-05-08T10:20:34;95457.66;;;14.71;100.00
36828;BME280;22766;48.042;11.192;2023-05-08T10:23:01;95455.25;;;14.53;100.00
36828;BME280;22766;48.042;11.192;2023-05-08T10:25:33;95462.44;;;14.43;100.00
36828;BME280;22766;48.042;11.192;2023-05-08T10:30:46;95458.53;;;14.47;100.00
36828;BME280;22766;48.042;11.192;2023-05-08T10:33:17;95455.41;;;14.44;100.00
36828;BME280;22766;48.042;11.192;2023-05-08T10:35:46;95447.63;;;14.52;100.00
36828;BME280;22766;48.042;11.192;2023-05-08T10:38:13;95449.44;;;14.35;100.00
36828;BME280;22766;48.042;11.192;2023-05-08T10:40:40;95449.44;;;14.27;100.00
36828;BME280;22766;48.042;11.192;2023-05-08T10:43:08;95456.09;;;14.30;100.00
36828;BME280;22766;48.042;11.192;2023-05-08T10:45:35;95451.19;;;14.27;100.00
36828;BME280;22766;48.042;11.192;2023-05-08T10:48:10;95459.16;;;14.25;100.00
36828;BME280;22766;48.042;11.192;2023-05-08T10:50:57;95459.00;;;14.19;100.00
36828;BME280;22766;48.042;11.192;2023-05-08T10:56:06;95446.81;;;14.51;100.00
36828;BME280;22766;48.042;11.192;2023-05-08T10:58:35;95444.34;;;14.74;100.00
36828;BME280;22766;48.042;11.192;2023-05-08T11:03:41;95446.72;;;14.91;100.00
36828;BME280;22766;48.042;11.192;2023-05-08T11:06:09;95441.03;;;14.88;100.00
36828;BME280;22766;48.042;11.192;2023-05-08T11:08:50;95437.94;;;14.92;100.00
36828;BME280;22766;48.042;11.192;2023-05-08T11:11:29;95430.03;;;15.17;100.00
36828;BME280;22766;48.042;11.192;2023-05-08T11:14:12;95441.78;;;15.51;100.00
36828;BME280;22766;48.042;11.192;2023-05-08T11:19:23;95430.34;;;15.83;100.00
36828;BME280;22766;48.042;11.192;2023-05-08T11:22:16;95427.03;;;15.89;100.00
36828;BME280;22766;48.042;11.192;2023-05-08T11:27:14;95432.44;;;16.10;100.00
36828;BME280;22766;48.042;11.192;2023-05-08T11:29:41;95432.53;;;15.94;100.00
36828;BME280;22766;48.042;11.192;2023-05-08T11:32:10;95423.19;;;16.22;100.00
36828;BME280;22766;48.042;11.192;2023-05-08T11:39:42;95424.84;;;16.01;100.00
36828;BME280;22766;48.042;11.192;2023-05-08T11:45:12;95417.53;;;16.19;100.00
36828;BME280;22766;48.042;11.192;2023-05-08T11:47:43;95420.44;;;16.38;100.00
36828;BME280;22766;48.042;11.192;2023-05-08T11:50:11;95428.97;;;16.69;100.00
36828;BME280;22766;48.042;11.192;2023-05-08T11:52:40;95429.44;;;16.73;100.00
36828;BME280;22766;48.042;11.192;2023-05-08T11:55:09;95423.72;;;16.55;100.00
36828;BME280;22766;48.042;11.192;2023-05-08T11:57:36;95427.16;;;16.70;100.00
36828;BME280;22766;48.042;11.192;2023-05-08T12:00:07;95423.47;;;16.50;100.00
36828;BME280;22766;48.042;11.192;2023-05-08T12:02:41;95425.72;;;16.30;100.00
36828;BME280;22766;48.042;11.192;2023-05-08T12:05:09;95425.66;;;16.38;100.00
36828;BME280;22766;48.042;11.192;2023-05-08T12:07:46;95426.81;;;16.36;100.00
36828;BME280;22766;48.042;11.192;2023-05-08T12:10:14;95422.28;;;16.15;100.00
36828;BME280;22766;48.042;11.192;2023-05-08T12:12:43;95425.59;;;15.86;100.00
36828;BME280;22766;48.042;11.192;2023-05-08T12:15:11;95432.69;;;16.15;100.00
36828;BME280;22766;48.042;11.192;2023-05-08T12:17:39;95427.06;;;16.26;100.00
36828;BME280;22766;48.042;11.192;2023-05-08T12:22:38;95425.28;;;16.64;100.00
36828;BME280;22766;48.042;11.192;2023-05-08T12:25:07;95427.97;;;16.56;100.00
36828;BME280;22766;48.042;11.192;2023-05-08T12:27:38;95430.84;;;16.61;100.00
36828;BME280;22766;48.042;11.192;2023-05-08T12:30:10;95429.97;;;16.98;100.00
36828;BME280;22766;48.042;11.192;2023-05-08T12:32:42;95434.91;;;17.07;100.00
36828;BME280;22766;48.042;11.192;2023-05-08T12:35:10;95427.28;;;17.06;100.00
36828;BME280;22766;48.042;11.192;2023-05-08T12:37:38;95435.25;;;17.04;100.00
36828;BME280;22766;48.042;11.192;2023-05-08T12:40:05;95438.06;;;17.03;100.00
36828;BME280;22766;48.042;11.192;2023-05-08T12:42:46;95432.66;;;16.90;100.00
36828;BME280;22766;48.042;11.192;2023-05-08T12:45:21;95432.19;;;17.01;100.00
36828;BME280;22766;48.042;11.192;2023-05-08T12:47:50;95433.22;;;17.00;100.00
36828;BME280;22766;48.042;11.192;2023-05-08T12:50:19;95427.53;;;17.11;100.00
36828;BME280;22766;48.042;11.192;2023-05-08T12:52:47;95431.50;;;16.92;100.00
36828;BME280;22766;48.042;11.192;2023-05-08T12:55:28;95437.69;;;16.91;100.00
36828;BME280;22766;48.042;11.192;2023-05-08T12:57:59;95435.72;;;16.93;100.00
36828;BME280;22766;48.042;11.192;2023-05-08T13:00:37;95426.09;;;16.79;100.00
36828;BME280;22766;48.042;11.192;2023-05-08T13:03:05;95429.31;;;16.66;100.00
36828;BME280;22766;48.042;11.192;2023-05-08T13:05:34;95431.13;;;16.80;100.00
36828;BME280;22766;48.042;11.192;2023-05-08T13:08:07;95420.50;;;16.53;100.00
36828;BME280;22766;48.042;11.192;2023-05-08T13:10:53;95432.09;;;16.79;100.00
36828;BME280;22766;48.042;11.192;2023-05-08T13:13:25;95421.69;;;16.79;100.00
36828;BME280;22766;48.042;11.192;2023-05-08T13:15:53;95424.75;;;16.68;100.00
36828;BME280;22766;48.042;11.192;2023-05-08T13:18:23;95422.38;;;16.73;100.00
36828;BME280;22766;48.042;11.192;2023-05-08T13:20:50;95419.97;;;16.72;100.00
36828;BME280;22766;48.042;11.192;2023-05-08T13:23:17;95405.81;;;16.37;100.00
36828;BME280;22766;48.042;11.192;2023-05-08T13:25:43;95413.94;;;16.20;100.00
36828;BME280;22766;48.042;11.192;2023-05-08T13:28:10;95408.41;;;16.00;100.00
36828;BME280;22766;48.042;11.192;2023-05-08T13:30:37;95413.03;;;16.13;100.00
36828;BME280;22766;48.042;11.192;2023-05-08T13:33:04;95409.72;;;15.96;100.00
36828;BME280;22766;48.042;11.192;2023-05-08T13:35:32;95411.56;;;15.96;100.00
36828;BME280;22766;48.042;11.192;2023-05-08T13:37:59;95413.28;;;16.03;100.00
36828;BME280;22766;48.042;11.192;2023-05-08T13:40:26;95404.84;;;16.01;100.00
36828;BME280;22766;48.042;11.192;2023-05-08T13:42:53;95404.72;;;15.95;100.00
36828;BME280;22766;48.042;11.192;2023-05-08T13:45:19;95397.50;;;15.82;100.00